createdAt,value
2023-04-20T00:02:18.156Z,99008.91
2023-04-20T00:05:20.108Z,99018.84
2023-04-20T00:08:21.812Z,99019.94
2023-04-20T00:11:23.539Z,99005.31
2023-04-20T00:14:25.475Z,98995.00
2023-04-20T00:17:27.226Z,98988.84
2023-04-20T00:20:29.071Z,98995.09
2023-04-20T00:23:30.925Z,98974.44
2023-04-20T00:26:32.646Z,98977.34
2023-04-20T00:29:34.429Z,98968.38
2023-04-20T00:32:36.190Z,98959.34
2023-04-20T00:35:37.927Z,98943.66
2023-04-20T00:38:39.617Z,98948.25
2023-04-20T00:41:41.492Z,98947.06
2023-04-20T00:44:43.123Z,98946.00
2023-04-20T00:47:44.782Z,98943.03
2023-04-20T00:50:46.986Z,98938.44
2023-04-20T00:53:48.670Z,98923.75
2023-04-20T00:56:51.576Z,98933.38
2023-04-20T00:59:53.288Z,98921.47
2023-04-20T01:02:57.292Z,98917.59
2023-04-20T01:05:59.159Z,98912.84
2023-04-20T01:09:01.604Z,98911.94
2023-04-20T01:12:05.353Z,98915.94
2023-04-20T01:15:07.658Z,98912.16
2023-04-20T01:18:09.757Z,98899.84
2023-04-20T01:21:14.198Z,98909.06
2023-04-20T01:24:16.029Z,98902.28
2023-04-20T01:27:17.741Z,98921.28
2023-04-20T01:30:19.429Z,98913.44
2023-04-20T01:33:21.163Z,98905.84
2023-04-20T01:36:25.773Z,98899.78
2023-04-20T01:39:27.891Z,98901.59
2023-04-20T01:42:29.515Z,98889.03
2023-04-20T01:45:31.795Z,98885.75
2023-04-20T01:48:34.026Z,98884.41
2023-04-20T01:51:36.045Z,98882.97
2023-04-20T01:54:37.655Z,98868.69
2023-04-20T01:57:39.258Z,98864.81
2023-04-20T02:00:41.215Z,98878.16
2023-04-20T02:03:43.160Z,98866.31
2023-04-20T02:06:45.014Z,98879.03
2023-04-20T02:09:46.672Z,98870.59
2023-04-20T02:12:49.677Z,98870.78
2023-04-20T02:15:51.550Z,98864.22
2023-04-20T02:18:54.772Z,98866.31
2023-04-20T02:21:56.406Z,98856.56
2023-04-20T02:24:58.255Z,98857.44
2023-04-20T02:27:59.926Z,98839.69
2023-04-20T02:31:01.616Z,98855.84
2023-04-20T02:34:06.115Z,98842.66
2023-04-20T02:37:07.795Z,98841.56
2023-04-20T02:40:10.428Z,98834.41
2023-04-20T02:43:12.362Z,98835.34
2023-04-20T02:46:15.815Z,98834.91
2023-04-20T02:49:17.851Z,98822.28
2023-04-20T02:52:20.701Z,98809.13
2023-04-20T02:55:22.536Z,98814.56
2023-04-20T02:58:28.382Z,98822.13
2023-04-20T03:01:53.091Z,98814.88
2023-04-20T03:04:57.015Z,98810.16
2023-04-20T03:07:59.623Z,98806.25
2023-04-20T03:11:02.279Z,98821.56
2023-04-20T03:14:04.076Z,98826.09
2023-04-20T03:17:05.774Z,98819.22
2023-04-20T03:20:09.208Z,98807.16
2023-04-20T03:23:11.589Z,98820.97
2023-04-20T03:26:13.537Z,98817.78
2023-04-20T03:29:23.183Z,98813.56
2023-04-20T03:32:25.585Z,98803.41
2023-04-20T03:35:27.360Z,98809.78
2023-04-20T03:38:30.664Z,98811.91
2023-04-20T03:41:32.325Z,98814.09
2023-04-20T03:44:33.993Z,98814.97
2023-04-20T03:47:35.766Z,98808.00
2023-04-20T03:50:37.397Z,98810.00
2023-04-20T03:53:40.315Z,98804.66
2023-04-20T03:56:47.621Z,98802.84
2023-04-20T03:59:49.380Z,98801.75
2023-04-20T04:02:56.080Z,98799.22
2023-04-20T04:06:05.962Z,98799.25
2023-04-20T04:09:09.250Z,98796.69
2023-04-20T04:12:10.902Z,98803.13
2023-04-20T04:15:13.370Z,98787.28
2023-04-20T04:18:23.365Z,98791.56
2023-04-20T04:21:28.372Z,98788.06
2023-04-20T04:24:37.842Z,98792.13
2023-04-20T04:27:44.037Z,98795.28
2023-04-20T04:30:47.490Z,98788.34
2023-04-20T04:33:49.813Z,98780.94
2023-04-20T04:37:02.509Z,98780.72
2023-04-20T04:40:15.069Z,98783.59
2023-04-20T04:43:19.515Z,98789.47
2023-04-20T04:46:30.448Z,98784.50
2023-04-20T04:49:33.090Z,98786.06
2023-04-20T04:52:35.367Z,98786.88
2023-04-20T04:55:37.070Z,98778.34
2023-04-20T04:58:39.150Z,98780.03
2023-04-20T05:01:40.885Z,98767.09
2023-04-20T05:04:42.741Z,98774.22
2023-04-20T05:07:44.485Z,98779.19
2023-04-20T05:10:46.283Z,98783.81
2023-04-20T05:13:48.604Z,98779.94
2023-04-20T05:16:50.283Z,98773.69
2023-04-20T05:19:51.929Z,98785.06
2023-04-20T05:22:53.538Z,98781.25
2023-04-20T05:25:55.326Z,98785.91
2023-04-20T05:28:56.984Z,98790.97
2023-04-20T05:31:58.598Z,98788.88
2023-04-20T05:35:00.766Z,98792.16
2023-04-20T05:38:06.155Z,98782.53
2023-04-20T05:41:07.823Z,98785.66
2023-04-20T05:44:09.452Z,98786.91
2023-04-20T05:47:11.133Z,98788.28
2023-04-20T05:50:12.786Z,98782.91
2023-04-20T05:53:15.547Z,98781.97
2023-04-20T05:56:18.547Z,98778.19
2023-04-20T05:59:20.747Z,98781.88
2023-04-20T06:02:22.577Z,98785.84
2023-04-20T06:05:24.617Z,98777.56
2023-04-20T06:08:26.376Z,98781.44
2023-04-20T06:11:28.039Z,98785.31
2023-04-20T06:14:29.645Z,98780.69
2023-04-20T06:17:31.262Z,98779.00
2023-04-20T06:20:32.924Z,98783.88
2023-04-20T06:23:34.577Z,98781.88
2023-04-20T06:26:36.228Z,98782.03
2023-04-20T06:29:38.202Z,98773.09
2023-04-20T06:32:40.034Z,98776.94
2023-04-20T06:35:41.838Z,98775.13
2023-04-20T06:38:43.435Z,98767.75
2023-04-20T06:41:45.041Z,98772.38
2023-04-20T06:44:49.124Z,98766.38
2023-04-20T06:47:50.826Z,98776.63
2023-04-20T06:50:52.450Z,98755.97
2023-04-20T06:53:54.560Z,98765.03
2023-04-20T06:56:56.380Z,98760.00
2023-04-20T06:59:59.212Z,98762.69
2023-04-20T07:03:01.368Z,98759.72
2023-04-20T07:06:03.077Z,98767.34
2023-04-20T07:09:05.125Z,98762.06
2023-04-20T07:12:06.982Z,98762.53
2023-04-20T07:15:09.824Z,98753.84
2023-04-20T07:18:11.810Z,98748.22
2023-04-20T07:21:15.205Z,98752.75
2023-04-20T07:24:16.870Z,98752.94
2023-04-20T07:27:18.623Z,98746.59
2023-04-20T07:30:20.283Z,98747.06
2023-04-20T07:33:21.940Z,98753.69
2023-04-20T07:36:23.746Z,98746.97
2023-04-20T07:39:27.351Z,98730.97
2023-04-20T07:42:29.613Z,98747.25
2023-04-20T07:45:31.581Z,98748.03
2023-04-20T07:48:37.236Z,98752.69
2023-04-20T07:51:38.865Z,98760.56
2023-04-20T07:54:40.593Z,98760.75
2023-04-20T07:57:42.579Z,98755.19
2023-04-20T08:00:46.254Z,98753.31
2023-04-20T08:03:48.150Z,98750.94
2023-04-20T08:06:50.262Z,98753.31
2023-04-20T08:09:51.971Z,98758.22
2023-04-20T08:12:53.961Z,98753.63
2023-04-20T08:15:55.718Z,98748.66
2023-04-20T08:18:57.525Z,98748.38
2023-04-20T08:22:00.707Z,98733.75
2023-04-20T08:25:03.280Z,98730.06
2023-04-20T08:28:08.670Z,98737.19
2023-04-20T08:31:11.986Z,98714.13
2023-04-20T08:34:13.901Z,98722.34
2023-04-20T08:37:15.827Z,98711.16
2023-04-20T08:40:19.898Z,98708.03
2023-04-20T08:43:22.088Z,98714.06
2023-04-20T08:46:25.047Z,98707.78
2023-04-20T08:49:29.924Z,98707.03
2023-04-20T08:52:32.934Z,98702.19
2023-04-20T08:55:34.667Z,98697.50
2023-04-20T08:58:38.570Z,98693.91
2023-04-20T09:01:41.892Z,98699.78
2023-04-20T09:04:43.766Z,98690.41
2023-04-20T09:07:53.407Z,98686.31
2023-04-20T09:10:55.064Z,98686.47
2023-04-20T09:14:01.654Z,98677.06
2023-04-20T09:17:05.204Z,98680.28
2023-04-20T09:20:08.526Z,98665.69
2023-04-20T09:23:14.892Z,98665.66
2023-04-20T09:26:19.698Z,98672.06
2023-04-20T09:29:23.656Z,98671.28
2023-04-20T09:32:28.123Z,98677.81
2023-04-20T09:35:29.851Z,98674.09
2023-04-20T09:38:32.337Z,98666.22
2023-04-20T09:41:35.550Z,98667.41
2023-04-20T09:44:38.742Z,98662.31
2023-04-20T09:47:43.027Z,98664.59
2023-04-20T09:50:49.684Z,98660.75
2023-04-20T09:53:54.722Z,98660.53
2023-04-20T09:56:59.254Z,98663.47
2023-04-20T10:00:02.438Z,98657.56
2023-04-20T10:06:24.203Z,98649.59
2023-04-20T10:09:26.589Z,98647.75
2023-04-20T10:12:28.209Z,98656.88
2023-04-20T10:15:41.152Z,98654.41
2023-04-20T10:18:43.013Z,98642.16
2023-04-20T10:21:49.812Z,98649.59
2023-04-20T10:24:51.505Z,98649.69
2023-04-20T10:28:04.704Z,98641.41
2023-04-20T10:31:08.684Z,98639.72
2023-04-20T10:34:10.403Z,98632.53
2023-04-20T10:37:13.709Z,98629.88
2023-04-20T10:40:15.688Z,98630.19
2023-04-20T10:43:21.429Z,98626.72
2023-04-20T10:46:24.756Z,98632.47
2023-04-20T10:49:28.923Z,98639.88
2023-04-20T10:52:36.154Z,98634.09
2023-04-20T10:55:37.865Z,98623.47
2023-04-20T10:58:41.160Z,98619.28
2023-04-20T11:01:44.002Z,98617.13
2023-04-20T11:04:45.825Z,98600.09
2023-04-20T11:07:55.436Z,98615.75
2023-04-20T11:10:57.100Z,98613.13
2023-04-20T11:14:07.492Z,98603.28
2023-04-20T11:17:09.091Z,98606.94
2023-04-20T11:20:17.118Z,98584.41
2023-04-20T11:23:23.861Z,98595.31
2023-04-20T11:26:37.843Z,98592.00
2023-04-20T11:29:42.138Z,98582.53
2023-04-20T11:32:54.440Z,98569.31
2023-04-20T11:35:58.347Z,98567.22
2023-04-20T11:39:10.109Z,98561.44
2023-04-20T11:42:11.905Z,98562.44
2023-04-20T11:45:13.563Z,98546.59
2023-04-20T11:48:15.158Z,98563.16
2023-04-20T11:51:16.980Z,98555.50
2023-04-20T11:54:22.240Z,98565.25
2023-04-20T11:57:25.674Z,98565.00
2023-04-20T12:00:27.307Z,98576.53
2023-04-20T12:03:29.165Z,98566.22
2023-04-20T12:06:31.980Z,98559.59
2023-04-20T12:09:38.407Z,98553.47
2023-04-20T12:12:42.179Z,98565.59
2023-04-20T12:15:43.952Z,98562.25
2023-04-20T12:18:45.654Z,98554.00
2023-04-20T12:21:48.097Z,98564.25
2023-04-20T12:24:49.701Z,98570.28
2023-04-20T12:27:51.477Z,98561.47
2023-04-20T12:30:53.233Z,98569.81
2023-04-20T12:33:54.840Z,98557.28
2023-04-20T12:36:56.479Z,98550.19
2023-04-20T12:39:58.113Z,98557.13
2023-04-20T12:42:59.879Z,98555.72
2023-04-20T12:46:01.565Z,98552.25
2023-04-20T12:49:03.678Z,98540.75
2023-04-20T12:52:06.901Z,98548.22
2023-04-20T12:55:11.443Z,98553.63
2023-04-20T12:58:13.428Z,98546.38
2023-04-20T13:01:15.124Z,98554.44
2023-04-20T13:04:17.249Z,98553.28
2023-04-20T13:07:19.345Z,98546.66
2023-04-20T13:10:20.925Z,98551.19
2023-04-20T13:13:22.542Z,98546.47
2023-04-20T13:16:24.437Z,98560.63
2023-04-20T13:19:26.028Z,98550.03
2023-04-20T13:22:27.737Z,98548.03
2023-04-20T13:25:32.714Z,98549.94
2023-04-20T13:28:34.804Z,98557.13
2023-04-20T13:31:37.714Z,98545.50
2023-04-20T13:34:39.382Z,98540.09
2023-04-20T13:37:41.786Z,98531.72
2023-04-20T13:40:44.528Z,98539.47
2023-04-20T13:43:46.296Z,98556.91
2023-04-20T13:46:48.661Z,98539.25
2023-04-20T13:49:50.384Z,98544.69
2023-04-20T13:52:51.999Z,98539.81
2023-04-20T13:55:53.536Z,98533.38
2023-04-20T13:58:55.124Z,98523.47
2023-04-20T14:01:56.818Z,98534.13
2023-04-20T14:04:58.580Z,98513.25
2023-04-20T14:08:01.749Z,98516.63
2023-04-20T14:11:03.504Z,98516.56
2023-04-20T14:14:05.886Z,98522.25
2023-04-20T14:17:07.492Z,98512.25
2023-04-20T14:20:09.726Z,98513.91
2023-04-20T14:23:11.603Z,98514.63
2023-04-20T14:26:13.495Z,98518.28
2023-04-20T14:29:15.757Z,98507.84
2023-04-20T14:32:17.437Z,98506.31
2023-04-20T14:35:19.271Z,98503.63
2023-04-20T14:38:20.956Z,98520.50
2023-04-20T14:41:22.883Z,98535.28
2023-04-20T14:44:24.558Z,98535.47
2023-04-20T14:47:26.195Z,98538.94
2023-04-20T14:50:27.897Z,98548.81
2023-04-20T14:53:30.555Z,98554.34
2023-04-20T14:56:34.259Z,98552.03
2023-04-20T14:59:37.156Z,98553.25
2023-04-20T15:02:39.375Z,98554.19
2023-04-20T15:05:41.496Z,98548.69
2023-04-20T15:08:43.271Z,98564.44
2023-04-20T15:11:44.837Z,98561.03
2023-04-20T15:14:46.467Z,98561.06
2023-04-20T15:17:48.283Z,98560.31
2023-04-20T15:20:53.116Z,98558.97
2023-04-20T15:23:54.819Z,98557.00
2023-04-20T15:26:56.489Z,98559.63
2023-04-20T15:29:58.413Z,98553.59
2023-04-20T15:33:04.483Z,98557.66
2023-04-20T15:36:07.543Z,98560.19
2023-04-20T15:39:09.431Z,98552.00
2023-04-20T15:42:11.343Z,98551.06
2023-04-20T15:45:13.513Z,98560.19
2023-04-20T15:48:15.252Z,98554.03
2023-04-20T15:51:17.657Z,98542.41
2023-04-20T15:54:23.506Z,98548.63
2023-04-20T15:57:25.352Z,98539.63
2023-04-20T16:00:27.330Z,98568.19
2023-04-20T16:03:29.121Z,98581.78
2023-04-20T16:06:31.748Z,98577.91
2023-04-20T16:09:33.320Z,98579.22
2023-04-20T16:12:35.017Z,98582.94
2023-04-20T16:15:37.587Z,98583.25
2023-04-20T16:18:39.270Z,98584.41
2023-04-20T16:21:41.058Z,98592.47
2023-04-20T16:24:42.757Z,98586.31
2023-04-20T16:27:44.465Z,98588.53
2023-04-20T16:30:46.096Z,98589.44
2023-04-20T16:33:48.252Z,98581.88
2023-04-20T16:36:50.338Z,98597.97
2023-04-20T16:39:51.995Z,98595.75
2023-04-20T16:42:53.854Z,98586.78
2023-04-20T16:45:55.471Z,98594.44
2023-04-20T16:48:57.260Z,98599.44
2023-04-20T16:51:58.934Z,98594.78
2023-04-20T16:55:00.804Z,98604.84
2023-04-20T16:58:02.531Z,98601.53
2023-04-20T17:01:04.519Z,98591.06
2023-04-20T17:04:06.299Z,98596.47
2023-04-20T17:07:08.103Z,98600.38
2023-04-20T17:10:09.936Z,98599.47
2023-04-20T17:13:11.696Z,98593.91
2023-04-20T17:16:13.373Z,98600.06
2023-04-20T17:19:15.058Z,98617.13
2023-04-20T17:22:16.697Z,98611.59
2023-04-20T17:25:18.404Z,98617.56
2023-04-20T17:28:20.417Z,98617.22
2023-04-20T17:31:22.246Z,98615.38
2023-04-20T17:34:24.047Z,98620.25
2023-04-20T17:37:26.033Z,98611.75
2023-04-20T17:40:27.733Z,98617.09
2023-04-20T17:43:29.468Z,98627.09
2023-04-20T17:46:31.890Z,98630.13
2023-04-20T17:49:34.934Z,98627.16
2023-04-20T17:52:36.627Z,98629.53
2023-04-20T17:55:38.380Z,98632.19
2023-04-20T17:58:40.120Z,98635.53
2023-04-20T18:01:41.817Z,98636.75
2023-04-20T18:04:43.582Z,98644.81
2023-04-20T18:07:45.308Z,98636.69
2023-04-20T18:10:47.248Z,98641.13
2023-04-20T18:13:49.096Z,98649.50
2023-04-20T18:16:52.134Z,98654.63
2023-04-20T18:19:53.829Z,98654.38
2023-04-20T18:22:56.521Z,98639.09
2023-04-20T18:25:58.276Z,98645.38
2023-04-20T18:28:59.954Z,98645.38
2023-04-20T18:32:01.721Z,98646.06
2023-04-20T18:35:04.664Z,98639.41
2023-04-20T18:38:08.056Z,98644.66
2023-04-20T18:41:09.859Z,98643.72
2023-04-20T18:44:11.523Z,98631.88
2023-04-20T18:47:14.581Z,98636.78
2023-04-20T18:50:16.196Z,98634.59
2023-04-20T18:53:17.908Z,98633.78
2023-04-20T18:56:19.714Z,98643.28
2023-04-20T18:59:21.385Z,98632.22
2023-04-20T19:02:23.179Z,98626.69
2023-04-20T19:05:25.254Z,98621.31
2023-04-20T19:08:26.885Z,98641.06
2023-04-20T19:11:31.262Z,98645.00
2023-04-20T19:14:32.952Z,98644.56
2023-04-20T19:17:35.944Z,98646.44
2023-04-20T19:20:37.847Z,98651.50
2023-04-20T19:23:39.500Z,98644.38
2023-04-20T19:26:41.378Z,98647.69
2023-04-20T19:29:43.032Z,98654.38
2023-04-20T19:32:44.784Z,98652.63
2023-04-20T19:35:50.872Z,98665.56
2023-04-20T19:38:52.830Z,98655.94
2023-04-20T19:41:54.745Z,98671.13
2023-04-20T19:44:56.563Z,98668.44
2023-04-20T19:47:58.173Z,98671.75
2023-04-20T19:51:00.907Z,98672.19
2023-04-20T19:54:04.231Z,98677.44
2023-04-20T19:57:06.161Z,98670.16
2023-04-20T20:00:10.011Z,98664.13
2023-04-20T20:03:17.291Z,98671.75
2023-04-20T20:06:19.683Z,98673.81
2023-04-20T20:09:23.994Z,98670.31
2023-04-20T20:12:26.397Z,98671.88
2023-04-20T20:15:28.192Z,98675.53
2023-04-20T20:18:29.882Z,98677.09
2023-04-20T20:21:31.703Z,98678.69
2023-04-20T20:24:33.249Z,98670.94
2023-04-20T20:27:34.900Z,98662.41
2023-04-20T20:30:36.689Z,98676.28
2023-04-20T20:33:38.346Z,98671.28
2023-04-20T20:36:42.549Z,98672.34
2023-04-20T20:39:44.135Z,98669.66
2023-04-20T20:42:46.765Z,98671.09
2023-04-20T20:45:48.511Z,98663.97
2023-04-20T20:48:50.127Z,98672.53
2023-04-20T20:51:52.240Z,98660.81
2023-04-20T20:54:53.829Z,98668.91
2023-04-20T20:57:55.494Z,98657.31
2023-04-20T21:00:57.215Z,98662.22
2023-04-20T21:03:59.116Z,98671.41
2023-04-20T21:07:00.880Z,98668.59
2023-04-20T21:10:02.860Z,98662.56
2023-04-20T21:13:05.484Z,98662.41
2023-04-20T21:16:07.254Z,98654.66
2023-04-20T21:19:10.614Z,98656.56
2023-04-20T21:22:12.354Z,98657.97
2023-04-20T21:25:13.941Z,98669.22
2023-04-20T21:28:15.550Z,98662.88
2023-04-20T21:31:17.261Z,98667.63
2023-04-20T21:34:18.937Z,98664.47
2023-04-20T21:37:20.950Z,98666.06
2023-04-20T21:40:25.193Z,98661.75
2023-04-20T21:43:26.977Z,98668.25
2023-04-20T21:46:28.812Z,98657.03
2023-04-20T21:49:30.397Z,98663.34
2023-04-20T21:52:32.038Z,98644.06
2023-04-20T21:55:33.719Z,98659.69
2023-04-20T21:58:35.400Z,98644.53
2023-04-20T22:01:37.183Z,98652.59
2023-04-20T22:04:39.596Z,98640.88
2023-04-20T22:07:41.596Z,98637.72
2023-04-20T22:10:43.266Z,98638.53
2023-04-20T22:13:45.315Z,98652.25
2023-04-20T22:16:48.039Z,98642.47
2023-04-20T22:19:49.636Z,98655.41
2023-04-20T22:22:51.519Z,98656.16
2023-04-20T22:25:53.108Z,98659.66
2023-04-20T22:28:54.797Z,98662.47
2023-04-20T22:31:56.454Z,98663.53
2023-04-20T22:34:58.236Z,98667.97
2023-04-20T22:37:59.958Z,98662.72
2023-04-20T22:41:01.688Z,98674.75
2023-04-20T22:44:03.437Z,98682.03
2023-04-20T22:47:05.245Z,98689.25
2023-04-20T22:50:09.691Z,98703.47
2023-04-20T22:53:11.450Z,98699.34
2023-04-20T22:56:13.555Z,98694.88
2023-04-20T22:59:16.385Z,98688.44
2023-04-20T23:02:18.276Z,98682.41
2023-04-20T23:05:20.463Z,98678.31
2023-04-20T23:08:23.565Z,98689.75
2023-04-20T23:11:28.653Z,98692.75
2023-04-20T23:14:30.275Z,98678.84
2023-04-20T23:17:32.544Z,98677.91
2023-04-20T23:20:34.394Z,98674.59
2023-04-20T23:23:36.052Z,98670.00
2023-04-20T23:26:37.656Z,98674.44
2023-04-20T23:29:39.241Z,98665.59
2023-04-20T23:32:42.468Z,98667.00
2023-04-20T23:35:46.116Z,98666.63
2023-04-20T23:38:47.783Z,98654.66
2023-04-20T23:41:49.645Z,98637.28
2023-04-20T23:44:51.305Z,98654.34
2023-04-20T23:47:53.043Z,98651.31
2023-04-20T23:50:55.739Z,98649.59
2023-04-20T23:53:57.447Z,98651.31
2023-04-20T23:56:59.104Z,98657.31
